Time;durP1;ratioP1;P1;durP2;ratioP2;P2;SDS_P1;SDS_P2;PMS_P1;PMS_P2;Temp;Humidity;BMP_temperature;BMP_pressure;BME280_temperature;BME280_humidity;BME280_pressure;Samples;Min_cycle;Max_cycle;Signal;HPM_P1;HPM_P2
2021/12/23 00:00:33;;;;;;;24.80;12.50;;;0.40;99.90;;;;;;5073978;28;20028;-73
2021/12/23 00:02:59;;;;;;;28.65;11.68;;;0.40;99.90;;;;;;5072958;28;20423;-74
2021/12/23 00:05:24;;;;;;;17.67;10.73;;;0.40;99.90;;;;;;5073700;28;20016;-74
2021/12/23 00:07:53;;;;;;;22.27;13.02;;;0.50;99.90;;;;;;5074008;28;20024;-74
2021/12/23 00:10:19;;;;;;;20.00;11.35;;;0.50;99.90;;;;;;5073067;28;20108;-74
2021/12/23 00:12:46;;;;;;;20.95;12.10;;;0.50;99.90;;;;;;5073846;28;20472;-74
2021/12/23 00:15:27;;;;;;;22.25;11.05;;;0.50;99.90;;;;;;5073796;28;20024;-74
2021/12/23 00:17:57;;;;;;;19.98;11.70;;;0.50;99.90;;;;;;5073863;28;20040;-74
2021/12/23 00:25:36;;;;;;;20.58;11.32;;;0.50;99.90;;;;;;5073234;28;20491;-73
2021/12/23 00:28:02;;;;;;;18.88;11.35;;;0.50;99.90;;;;;;5072684;28;20028;-74
2021/12/23 00:30:28;;;;;;;18.45;11.38;;;0.50;99.90;;;;;;5072118;28;20028;-74
2021/12/23 00:32:56;;;;;;;22.52;12.48;;;0.60;99.90;;;;;;5072988;28;20016;-73
2021/12/23 00:35:22;;;;;;;19.63;11.63;;;0.60;99.90;;;;;;5072654;28;20480;-74
2021/12/23 00:37:50;;;;;;;18.10;11.40;;;0.60;99.90;;;;;;5072192;28;20029;-73
2021/12/23 00:40:17;;;;;;;18.52;10.10;;;0.50;99.90;;;;;;5072332;28;20494;-74
2021/12/23 00:42:42;;;;;;;20.92;11.65;;;0.50;99.90;;;;;;5072565;28;20033;-74
2021/12/23 00:45:09;;;;;;;17.27;10.75;;;0.30;99.90;;;;;;5072576;28;20023;-75
2021/12/23 00:47:34;;;;;;;20.35;12.02;;;0.40;99.90;;;;;;5072134;28;20083;-74
2021/12/23 00:50:00;;;;;;;20.60;11.10;;;0.40;99.90;;;;;;5072672;28;20550;-74
2021/12/23 00:52:37;;;;;;;21.30;12.02;;;0.40;99.90;;;;;;5071384;28;20025;-75
2021/12/23 00:55:04;;;;;;;20.98;11.55;;;0.40;99.90;;;;;;5072156;28;20427;-74
2021/12/23 00:57:32;;;;;;;22.42;11.90;;;0.30;99.90;;;;;;5071489;28;20135;-73
2021/12/23 00:59:58;;;;;;;22.70;12.55;;;0.40;99.90;;;;;;5072237;28;20093;-74
2021/12/23 01:02:29;;;;;;;18.65;10.70;;;0.40;99.90;;;;;;5071724;28;20031;-74
2021/12/23 01:04:56;;;;;;;25.00;11.63;;;0.40;99.90;;;;;;5071755;28;20058;-74
2021/12/23 01:07:21;;;;;;;17.45;11.30;;;0.40;99.90;;;;;;5071971;28;20024;-74
2021/12/23 01:09:47;;;;;;;20.50;11.63;;;0.50;99.90;;;;;;5072165;28;20112;-73
2021/12/23 01:12:16;;;;;;;17.13;10.75;;;0.40;99.90;;;;;;5071036;28;20141;-74
2021/12/23 01:14:53;;;;;;;20.20;12.02;;;0.40;99.90;;;;;;5071875;28;20032;-74
2021/12/23 01:17:31;;;;;;;18.92;11.82;;;0.50;99.90;;;;;;5071741;28;20091;-73
2021/12/23 01:20:00;;;;;;;20.83;12.20;;;0.40;99.90;;;;;;5071098;28;20066;-75
2021/12/23 01:22:26;;;;;;;21.25;12.18;;;0.40;99.90;;;;;;5071609;28;20471;-73
2021/12/23 01:24:52;;;;;;;21.70;12.73;;;0.40;99.90;;;;;;5071594;28;20033;-74
2021/12/23 01:27:18;;;;;;;20.55;12.05;;;0.30;99.90;;;;;;5070936;28;20029;-74
2021/12/23 01:29:43;;;;;;;18.73;11.18;;;0.30;99.90;;;;;;5071742;28;20104;-72
2021/12/23 01:32:09;;;;;;;22.17;11.65;;;0.30;99.90;;;;;;5071805;28;20032;-73
2021/12/23 01:34:36;;;;;;;23.90;12.40;;;0.20;99.90;;;;;;5070567;28;20024;-73
2021/12/23 01:37:04;;;;;;;22.80;12.02;;;0.20;99.90;;;;;;5071607;28;20115;-73
2021/12/23 01:39:30;;;;;;;19.08;11.63;;;0.10;99.90;;;;;;5071625;28;20427;-73
2021/12/23 01:41:56;;;;;;;20.60;12.50;;;0.10;99.90;;;;;;5071364;28;20048;-73
2021/12/23 01:44:21;;;;;;;25.02;13.63;;;0.00;99.90;;;;;;5071950;28;20025;-75
2021/12/23 01:46:47;;;;;;;20.63;12.27;;;-0.10;99.90;;;;;;5071842;28;20025;-73
2021/12/23 01:49:15;;;;;;;24.58;13.55;;;-0.10;99.90;;;;;;5071379;28;20040;-76
2021/12/23 01:51:40;;;;;;;25.88;12.77;;;-0.20;99.90;;;;;;5072035;28;20025;-74
2021/12/23 01:54:06;;;;;;;21.00;12.35;;;-0.20;99.90;;;;;;5070665;28;20694;-74
2021/12/23 01:56:32;;;;;;;19.65;13.05;;;-0.20;99.90;;;;;;5071170;28;20076;-73
2021/12/23 01:58:57;;;;;;;24.98;12.88;;;-0.30;99.90;;;;;;5071865;28;20025;-73
2021/12/23 02:01:23;;;;;;;22.83;12.50;;;-0.30;99.90;;;;;;5071007;28;20025;-74
2021/12/23 02:03:49;;;;;;;22.08;12.80;;;-0.20;99.90;;;;;;5072018;28;20020;-73
2021/12/23 02:06:15;;;;;;;22.05;13.05;;;-0.30;99.90;;;;;;5071260;28;20028;-74
2021/12/23 02:08:42;;;;;;;20.73;13.10;;;-0.30;99.90;;;;;;5070895;28;20021;-74
2021/12/23 02:11:09;;;;;;;22.40;13.23;;;-0.40;99.90;;;;;;5071723;28;20110;-74
2021/12/23 02:13:36;;;;;;;25.75;12.95;;;-0.40;99.90;;;;;;5071793;28;20025;-73
2021/12/23 02:16:02;;;;;;;26.45;13.55;;;-0.50;99.90;;;;;;5071163;28;20032;-74
2021/12/23 02:18:28;;;;;;;19.42;12.57;;;-0.50;99.90;;;;;;5071478;28;20473;-73
2021/12/23 02:20:55;;;;;;;26.98;15.27;;;-0.50;99.90;;;;;;5071285;28;20114;-73
2021/12/23 02:23:21;;;;;;;33.65;14.77;;;-0.50;99.90;;;;;;5070300;28;20025;-73
2021/12/23 02:25:47;;;;;;;26.98;13.60;;;-0.50;99.90;;;;;;5071598;28;20078;-74
2021/12/23 02:28:17;;;;;;;25.48;13.52;;;-0.60;99.90;;;;;;5071308;28;20411;-74
2021/12/23 02:30:43;;;;;;;33.70;16.05;;;-0.60;99.90;;;;;;5070810;28;20071;-74
2021/12/23 02:33:08;;;;;;;24.73;13.82;;;-0.60;99.90;;;;;;5070775;28;20029;-73
2021/12/23 02:35:35;;;;;;;28.17;14.02;;;-0.50;99.90;;;;;;5071451;28;20035;-73
2021/12/23 02:38:00;;;;;;;34.90;14.45;;;-0.50;99.90;;;;;;5070652;28;20039;-73
2021/12/23 02:40:31;;;;;;;24.92;14.90;;;-0.60;99.90;;;;;;5082932;28;20024;-73
2021/12/23 02:43:07;;;;;;;31.70;15.82;;;-0.60;99.90;;;;;;5091471;28;20074;-73
2021/12/23 02:45:32;;;;;;;25.88;15.43;;;-0.50;99.90;;;;;;5091268;28;20115;-73
2021/12/23 02:47:58;;;;;;;24.33;14.30;;;-0.50;99.90;;;;;;5094863;28;20079;-74
2021/12/23 02:50:24;;;;;;;28.80;15.63;;;-0.50;99.90;;;;;;5094218;28;20016;-74
2021/12/23 02:52:49;;;;;;;28.15;14.93;;;-0.40;99.90;;;;;;5095650;28;20824;-72
2021/12/23 02:55:18;;;;;;;29.00;15.55;;;-0.30;99.90;;;;;;5094429;28;20024;-73
2021/12/23 02:57:43;;;;;;;27.70;14.77;;;-0.30;99.90;;;;;;5094236;28;20074;-73
2021/12/23 03:00:10;;;;;;;28.63;15.70;;;-0.40;99.90;;;;;;5096838;28;20024;-74
2021/12/23 03:02:40;;;;;;;31.23;15.98;;;-0.30;99.90;;;;;;5095093;28;20023;-74
2021/12/23 03:05:07;;;;;;;34.17;16.67;;;-0.20;99.90;;;;;;5093812;28;20024;-73
2021/12/23 03:07:33;;;;;;;31.25;17.10;;;-0.20;99.90;;;;;;5094132;28;20056;-74
2021/12/23 03:09:59;;;;;;;35.33;18.73;;;-0.20;99.90;;;;;;5094771;28;20126;-74
2021/12/23 03:12:24;;;;;;;36.38;18.50;;;-0.10;99.90;;;;;;5093747;28;20024;-74
2021/12/23 03:14:50;;;;;;;43.75;19.75;;;-0.70;99.90;;;;;;5094964;28;20120;-73
2021/12/23 03:17:16;;;;;;;50.83;20.70;;;0.00;99.90;;;;;;5094065;28;20101;-72
2021/12/23 03:19:41;;;;;;;48.72;23.10;;;0.00;99.90;;;;;;5093293;28;20020;-73
2021/12/23 03:22:07;;;;;;;52.22;23.30;;;0.00;99.90;;;;;;5094218;28;20352;-74
2021/12/23 03:24:32;;;;;;;48.55;22.08;;;0.00;99.90;;;;;;5094778;28;20098;-75
2021/12/23 03:26:58;;;;;;;58.08;27.10;;;0.00;99.90;;;;;;5094025;28;20017;-74
2021/12/23 03:29:23;;;;;;;60.00;27.58;;;0.00;99.90;;;;;;5094160;28;20036;-72
2021/12/23 03:31:51;;;;;;;57.20;27.38;;;0.00;99.90;;;;;;5095312;28;20111;-76
2021/12/23 03:34:17;;;;;;;66.82;28.35;;;0.00;99.90;;;;;;5093203;28;20048;-74
2021/12/23 03:36:43;;;;;;;62.30;28.05;;;0.10;99.90;;;;;;5094093;28;20456;-74
2021/12/23 03:39:08;;;;;;;72.63;30.88;;;0.10;99.90;;;;;;5094217;28;20044;-74
2021/12/23 03:41:34;;;;;;;76.40;32.20;;;0.10;99.90;;;;;;5093803;28;20028;-74
2021/12/23 03:43:59;;;;;;;82.80;32.88;;;0.10;99.90;;;;;;5094072;28;20098;-75
2021/12/23 03:46:25;;;;;;;87.53;34.95;;;0.30;99.90;;;;;;5093262;28;20103;-75
2021/12/23 03:48:53;;;;;;;81.60;35.00;;;0.40;99.90;;;;;;5094060;28;20044;-74
2021/12/23 03:51:19;;;;;;;89.78;36.08;;;0.40;99.90;;;;;;5093221;28;20055;-74
2021/12/23 03:53:45;;;;;;;88.53;34.75;;;0.40;99.90;;;;;;5092827;28;20107;-75
2021/12/23 03:56:10;;;;;;;95.20;37.10;;;0.50;99.90;;;;;;5093630;28;20067;-73
2021/12/23 03:58:36;;;;;;;90.57;35.63;;;0.50;99.90;;;;;;5093678;28;20417;-73
2021/12/23 04:01:03;;;;;;;84.45;35.33;;;0.40;99.90;;;;;;5093486;28;20032;-74
2021/12/23 04:03:29;;;;;;;94.72;35.45;;;0.50;99.90;;;;;;5093829;28;20433;-77
2021/12/23 04:05:55;;;;;;;85.05;34.97;;;0.50;99.90;;;;;;5094341;28;20110;-73
2021/12/23 04:08:20;;;;;;;90.90;35.70;;;0.40;99.90;;;;;;5093166;28;20066;-73
2021/12/23 04:10:46;;;;;;;100.38;38.25;;;0.30;99.90;;;;;;5093820;28;20028;-74
2021/12/23 04:13:11;;;;;;;90.47;35.65;;;0.30;99.90;;;;;;5092918;28;20111;-74
2021/12/23 04:15:37;;;;;;;87.43;34.13;;;0.30;99.90;;;;;;5092746;28;20062;-73
2021/12/23 04:18:04;;;;;;;82.90;32.22;;;0.30;99.90;;;;;;5093434;28;20020;-75
2021/12/23 04:20:34;;;;;;;82.32;33.30;;;0.30;99.90;;;;;;5093016;28;20046;-73
2021/12/23 04:23:00;;;;;;;89.43;34.05;;;0.40;99.90;;;;;;5092993;28;20020;-73
2021/12/23 04:25:27;;;;;;;83.75;30.83;;;0.50;99.90;;;;;;5093063;28;20490;-73
2021/12/23 04:27:55;;;;;;;86.50;32.75;;;0.50;99.90;;;;;;5093328;28;20495;-74
2021/12/23 04:30:22;;;;;;;90.38;34.60;;;0.50;99.90;;;;;;5092291;28;20021;-74
2021/12/23 04:32:48;;;;;;;83.65;32.42;;;0.50;99.90;;;;;;5093275;28;20073;-74
2021/12/23 04:35:14;;;;;;;75.53;31.50;;;0.50;99.90;;;;;;5093299;28;20021;-73
2021/12/23 04:37:40;;;;;;;81.43;33.45;;;0.50;99.90;;;;;;5092462;28;20032;-73
2021/12/23 04:40:08;;;;;;;80.50;32.70;;;0.40;99.90;;;;;;5092679;28;20419;-73
2021/12/23 04:42:35;;;;;;;91.53;33.08;;;0.50;99.90;;;;;;5093040;28;20111;-74
2021/12/23 04:45:00;;;;;;;83.07;30.48;;;0.50;99.90;;;;;;5092375;28;20054;-74
2021/12/23 04:47:26;;;;;;;80.85;31.50;;;0.50;99.90;;;;;;5091271;28;20059;-75
2021/12/23 04:49:52;;;;;;;86.20;30.17;;;0.50;99.90;;;;;;5092477;28;20425;-72
2021/12/23 04:52:18;;;;;;;76.63;31.15;;;0.50;99.90;;;;;;5092916;28;20090;-73
2021/12/23 04:54:43;;;;;;;78.40;31.08;;;0.50;99.90;;;;;;5092763;28;20024;-74
2021/12/23 04:57:09;;;;;;;72.55;31.75;;;0.40;99.90;;;;;;5091615;28;20050;-74
2021/12/23 04:59:34;;;;;;;74.80;30.23;;;0.50;99.90;;;;;;5092620;28;20020;-74
2021/12/23 05:02:00;;;;;;;78.97;29.77;;;0.50;99.90;;;;;;5093581;28;20085;-74
2021/12/23 05:04:26;;;;;;;65.63;28.00;;;0.40;99.90;;;;;;5092633;28;20024;-72
2021/12/23 05:06:51;;;;;;;70.85;28.15;;;0.40;99.90;;;;;;5092203;28;20028;-73
2021/12/23 05:09:17;;;;;;;68.53;29.52;;;0.40;99.90;;;;;;5091508;28;20032;-73
2021/12/23 05:11:44;;;;;;;72.15;30.67;;;0.40;99.90;;;;;;5091432;28;20035;-73
2021/12/23 05:14:10;;;;;;;65.80;28.70;;;0.30;99.90;;;;;;5093089;28;20023;-73
2021/12/23 05:16:36;;;;;;;66.90;28.73;;;0.30;99.90;;;;;;5092622;28;20039;-73
2021/12/23 05:19:01;;;;;;;73.00;29.48;;;0.20;99.90;;;;;;5091174;28;20046;-73
2021/12/23 05:21:27;;;;;;;71.82;30.58;;;0.20;99.90;;;;;;5092211;28;20038;-73
2021/12/23 05:23:53;;;;;;;74.78;28.35;;;0.20;99.90;;;;;;5092083;28;20535;-73
2021/12/23 05:26:18;;;;;;;73.25;30.17;;;0.20;99.90;;;;;;5091011;28;20032;-73
2021/12/23 05:28:44;;;;;;;69.43;28.08;;;0.10;99.90;;;;;;5091934;28;20026;-73
2021/12/23 05:31:09;;;;;;;75.32;30.05;;;0.20;99.90;;;;;;5092444;28;20032;-73
2021/12/23 05:33:35;;;;;;;73.75;29.52;;;0.20;99.90;;;;;;5091523;28;20020;-74
2021/12/23 05:36:01;;;;;;;73.63;28.13;;;0.30;99.90;;;;;;5092280;28;20046;-73
2021/12/23 05:38:27;;;;;;;70.07;28.77;;;0.30;99.90;;;;;;5091482;28;20137;-73
2021/12/23 05:40:52;;;;;;;70.53;28.75;;;0.30;99.90;;;;;;5091135;28;20043;-74
2021/12/23 05:43:18;;;;;;;72.97;28.67;;;0.30;99.90;;;;;;5091271;28;20107;-74
2021/12/23 05:45:43;;;;;;;69.32;28.73;;;0.40;99.90;;;;;;5091724;28;20027;-74
2021/12/23 05:48:09;;;;;;;74.85;29.15;;;0.40;99.90;;;;;;5090823;28;20133;-73
2021/12/23 05:50:35;;;;;;;72.97;29.58;;;0.40;99.90;;;;;;5092101;28;20032;-73
2021/12/23 05:53:01;;;;;;;63.30;26.90;;;0.40;99.90;;;;;;5091059;28;20019;-73
2021/12/23 05:55:26;;;;;;;70.88;28.25;;;0.50;99.90;;;;;;5091049;28;20080;-73
2021/12/23 05:57:52;;;;;;;70.95;28.40;;;0.50;99.90;;;;;;5091289;28;20114;-74
2021/12/23 06:00:24;;;;;;;66.25;27.67;;;0.50;99.90;;;;;;5090652;28;20020;-73
2021/12/23 06:02:51;;;;;;;71.65;29.23;;;0.50;99.90;;;;;;5091727;28;20488;-73
2021/12/23 06:05:17;;;;;;;63.97;26.88;;;0.60;99.90;;;;;;5072330;28;20021;-73
2021/12/23 06:07:43;;;;;;;63.85;27.23;;;0.60;99.90;;;;;;5083318;28;20032;-74
2021/12/23 06:10:09;;;;;;;63.83;26.20;;;0.60;99.90;;;;;;5082394;28;20365;-75
2021/12/23 06:12:35;;;;;;;60.75;27.40;;;0.60;99.90;;;;;;5084423;28;20051;-73
2021/12/23 06:15:00;;;;;;;69.20;27.55;;;0.60;99.90;;;;;;5084800;28;20108;-73
2021/12/23 06:17:26;;;;;;;66.97;27.15;;;0.60;99.90;;;;;;5071175;28;20033;-73
2021/12/23 06:19:52;;;;;;;65.88;25.35;;;0.60;99.90;;;;;;5071423;28;20021;-73
2021/12/23 06:22:18;;;;;;;65.25;25.05;;;0.70;99.90;;;;;;5074088;28;20118;-74
2021/12/23 06:24:46;;;;;;;71.47;27.80;;;0.50;99.90;;;;;;5075467;28;20211;-74
2021/12/23 06:27:12;;;;;;;65.68;27.73;;;0.50;99.90;;;;;;5075257;28;20064;-73
2021/12/23 06:29:38;;;;;;;62.08;26.90;;;0.60;99.90;;;;;;5074914;28;20520;-74
2021/12/23 06:32:04;;;;;;;60.47;25.58;;;0.50;99.90;;;;;;5075287;28;20024;-73
2021/12/23 06:34:30;;;;;;;71.20;28.15;;;0.60;99.90;;;;;;5075127;28;20476;-74
2021/12/23 06:36:55;;;;;;;72.28;29.67;;;0.60;99.90;;;;;;5074455;28;20072;-73
2021/12/23 06:39:21;;;;;;;69.72;27.15;;;0.60;99.90;;;;;;5074863;28;20039;-73
2021/12/23 06:41:47;;;;;;;65.43;25.67;;;0.60;99.90;;;;;;5074984;28;20029;-73
2021/12/23 06:44:12;;;;;;;66.07;26.30;;;0.60;99.90;;;;;;5074371;28;20025;-74
2021/12/23 06:46:41;;;;;;;67.15;26.08;;;0.60;99.90;;;;;;5075055;28;20032;-73
2021/12/23 06:49:06;;;;;;;63.20;27.02;;;0.70;99.90;;;;;;5077021;28;20036;-74
2021/12/23 06:51:32;;;;;;;71.55;27.73;;;0.70;99.90;;;;;;5074145;28;20028;-73
2021/12/23 06:53:59;;;;;;;65.00;26.42;;;0.70;99.90;;;;;;5075038;28;20078;-73
2021/12/23 06:56:25;;;;;;;63.55;27.20;;;0.80;99.90;;;;;;5073807;28;20039;-72
2021/12/23 06:58:51;;;;;;;67.43;26.88;;;0.80;99.90;;;;;;5091350;28;20376;-73
2021/12/23 07:01:20;;;;;;;64.25;26.88;;;0.70;99.90;;;;;;5094948;28;20107;-73
2021/12/23 07:06:35;;;;;;;60.58;26.42;;;0.80;99.90;;;;;;5095482;28;20387;-74
2021/12/23 07:09:03;;;;;;;72.93;27.38;;;0.80;99.90;;;;;;5094969;28;20016;-73
2021/12/23 07:11:29;;;;;;;69.82;26.50;;;0.70;99.90;;;;;;5094526;28;20016;-74
2021/12/23 07:13:55;;;;;;;66.90;26.27;;;0.80;99.90;;;;;;5089306;28;20031;-72
2021/12/23 07:16:20;;;;;;;69.32;26.83;;;0.80;99.90;;;;;;5092450;28;20028;-73
2021/12/23 07:18:46;;;;;;;66.55;27.50;;;0.80;99.90;;;;;;5094097;28;20032;-73
2021/12/23 07:21:12;;;;;;;63.75;25.83;;;0.80;99.90;;;;;;5096621;28;20077;-73
2021/12/23 07:23:38;;;;;;;61.90;24.90;;;0.80;99.90;;;;;;5092258;28;20176;-75
2021/12/23 07:26:03;;;;;;;68.72;26.00;;;0.80;99.90;;;;;;5092761;28;20020;-72
2021/12/23 07:28:29;;;;;;;70.85;29.35;;;0.90;99.90;;;;;;5095808;28;20075;-73
2021/12/23 07:30:57;;;;;;;65.97;27.90;;;0.90;99.90;;;;;;5090698;28;20121;-73
2021/12/23 07:33:22;;;;;;;72.93;27.52;;;0.90;99.90;;;;;;5090833;28;20020;-73
2021/12/23 07:35:48;;;;;;;72.10;28.75;;;0.90;99.90;;;;;;5097127;28;20028;-73
2021/12/23 07:38:15;;;;;;;67.40;26.15;;;0.90;99.90;;;;;;5093164;28;20028;-72
2021/12/23 07:40:41;;;;;;;61.78;25.15;;;0.90;99.90;;;;;;5092785;28;20102;-73
2021/12/23 07:43:21;;;;;;;68.55;25.58;;;0.90;99.90;;;;;;5093038;28;20027;-74
2021/12/23 07:45:46;;;;;;;63.20;25.60;;;0.90;99.90;;;;;;5089245;28;20041;-73
2021/12/23 07:48:12;;;;;;;64.95;26.55;;;0.90;99.90;;;;;;5077830;28;20048;-74
2021/12/23 07:50:41;;;;;;;62.50;28.15;;;0.90;99.90;;;;;;5094166;28;20095;-73
2021/12/23 07:53:07;;;;;;;68.43;26.70;;;0.90;99.90;;;;;;5086292;28;20032;-72
2021/12/23 07:55:32;;;;;;;63.17;25.58;;;0.90;99.90;;;;;;5090279;28;20020;-72
2021/12/23 07:58:01;;;;;;;65.82;27.10;;;0.90;99.90;;;;;;5085605;28;20035;-72
2021/12/23 08:00:29;;;;;;;64.25;27.52;;;0.90;99.90;;;;;;5092353;28;20026;-72
2021/12/23 08:02:55;;;;;;;65.65;25.45;;;0.90;99.90;;;;;;5087505;28;20055;-73
2021/12/23 08:05:21;;;;;;;65.10;26.88;;;0.90;99.90;;;;;;5089230;28;20468;-72
2021/12/23 08:07:46;;;;;;;61.08;24.75;;;0.90;99.90;;;;;;5082943;28;20020;-74
2021/12/23 08:10:12;;;;;;;63.65;25.88;;;1.00;99.90;;;;;;5083845;28;20116;-72
2021/12/23 08:12:38;;;;;;;64.68;25.27;;;1.00;99.90;;;;;;5085126;28;20031;-70
2021/12/23 08:15:04;;;;;;;56.58;25.23;;;1.00;99.90;;;;;;5075245;28;20024;-72
2021/12/23 08:17:29;;;;;;;60.83;25.35;;;1.10;99.90;;;;;;5078675;28;20078;-72
2021/12/23 08:19:55;;;;;;;59.75;24.75;;;1.10;99.90;;;;;;5092819;28;20020;-73
2021/12/23 08:22:22;;;;;;;60.85;26.88;;;1.10;99.90;;;;;;5099155;28;20024;-74
2021/12/23 08:24:47;;;;;;;60.97;24.67;;;1.10;99.90;;;;;;5091031;28;20027;-73
2021/12/23 08:27:13;;;;;;;57.08;24.80;;;1.20;99.90;;;;;;5072471;28;20024;-74
2021/12/23 08:29:39;;;;;;;58.47;25.20;;;1.20;99.90;;;;;;5075360;28;20031;-74
2021/12/23 08:32:05;;;;;;;55.10;24.92;;;1.20;99.90;;;;;;5076781;28;20620;-73
2021/12/23 08:34:34;;;;;;;57.42;25.63;;;1.30;99.90;;;;;;5081617;28;20033;-76
2021/12/23 08:37:00;;;;;;;56.30;23.15;;;1.30;99.90;;;;;;5080935;28;20055;-74
2021/12/23 08:39:26;;;;;;;60.60;25.10;;;1.40;99.90;;;;;;5092745;28;20020;-74
2021/12/23 08:41:51;;;;;;;62.58;24.60;;;1.30;99.90;;;;;;5084721;28;20489;-72
2021/12/23 08:44:17;;;;;;;69.80;25.75;;;1.40;99.90;;;;;;5086537;28;20066;-72
2021/12/23 08:46:43;;;;;;;56.42;24.85;;;1.40;99.90;;;;;;5089423;28;20031;-74
2021/12/23 08:49:08;;;;;;;59.33;25.05;;;1.50;99.90;;;;;;5077314;28;20404;-71
2021/12/23 08:51:36;;;;;;;57.45;25.98;;;1.50;99.90;;;;;;5080555;28;20032;-74
2021/12/23 08:54:02;;;;;;;62.25;23.83;;;1.50;99.90;;;;;;5080512;28;20032;-72
2021/12/23 08:56:27;;;;;;;58.15;26.02;;;1.50;99.90;;;;;;5078976;28;20032;-74
2021/12/23 08:58:57;;;;;;;63.67;25.48;;;1.50;99.90;;;;;;5074766;28;20020;-72
2021/12/23 09:01:23;;;;;;;58.03;24.08;;;1.50;99.90;;;;;;5075237;28;20027;-74
2021/12/23 09:03:49;;;;;;;57.30;25.60;;;1.70;99.90;;;;;;5076428;28;20029;-73
2021/12/23 09:06:15;;;;;;;57.25;24.77;;;1.60;99.90;;;;;;5078225;28;20017;-72
2021/12/23 09:08:40;;;;;;;54.67;25.00;;;1.70;99.90;;;;;;5076927;28;20038;-75
2021/12/23 09:11:06;;;;;;;59.22;24.23;;;1.80;99.90;;;;;;5080711;28;20067;-72
2021/12/23 09:13:32;;;;;;;61.50;25.75;;;1.80;99.90;;;;;;5082032;28;20036;-73
2021/12/23 09:16:00;;;;;;;52.72;23.23;;;1.80;99.90;;;;;;5080482;28;20028;-74
2021/12/23 09:18:26;;;;;;;57.72;25.08;;;1.70;99.90;;;;;;5088297;28;20024;-75
2021/12/23 09:20:54;;;;;;;56.30;24.40;;;1.80;99.90;;;;;;5088993;28;20027;-71
2021/12/23 09:23:20;;;;;;;54.72;23.95;;;1.80;99.90;;;;;;5095100;28;20081;-69
2021/12/23 09:25:47;;;;;;;57.47;24.85;;;1.80;99.90;;;;;;5101079;28;20024;-72
2021/12/23 09:33:31;;;;;;;57.72;23.42;;;1.90;99.90;;;;;;5107433;28;20089;-70
2021/12/23 09:35:57;;;;;;;56.35;23.83;;;1.90;99.90;;;;;;5102669;28;20032;-70
2021/12/23 09:38:28;;;;;;;59.88;25.40;;;1.90;99.90;;;;;;5090530;28;20108;-70
2021/12/23 09:41:00;;;;;;;59.67;24.77;;;1.90;99.90;;;;;;5092178;28;20024;-74
2021/12/23 09:43:28;;;;;;;58.00;24.23;;;1.90;99.90;;;;;;5088663;28;20035;-75
2021/12/23 09:45:54;;;;;;;58.60;22.85;;;2.00;99.90;;;;;;5080107;28;20031;-74
2021/12/23 09:48:21;;;;;;;59.85;24.92;;;2.00;99.90;;;;;;5085828;28;20037;-74
2021/12/23 09:50:49;;;;;;;56.45;22.75;;;2.00;99.90;;;;;;5090994;28;20050;-74
2021/12/23 09:53:17;;;;;;;56.92;23.65;;;2.10;99.90;;;;;;5087594;28;20028;-74
2021/12/23 09:55:43;;;;;;;59.83;24.10;;;2.20;99.90;;;;;;5087167;28;20028;-73
2021/12/23 09:58:09;;;;;;;53.80;22.30;;;2.20;99.90;;;;;;5098216;28;20028;-75
2021/12/23 10:00:38;;;;;;;58.78;24.17;;;2.30;99.90;;;;;;5105486;28;20031;-73
2021/12/23 10:03:06;;;;;;;58.53;24.25;;;2.30;99.90;;;;;;5092549;28;20111;-73
2021/12/23 10:05:35;;;;;;;52.75;23.73;;;2.40;99.90;;;;;;5088424;28;20042;-74
2021/12/23 10:08:02;;;;;;;54.35;22.77;;;2.40;99.90;;;;;;5091148;28;20027;-74
2021/12/23 10:38:20;;;;;;;58.08;21.45;;;2.70;99.90;;;;;;5094456;28;20043;-78
2021/12/23 10:40:51;;;;;;;52.87;22.57;;;2.70;99.90;;;;;;5099964;28;20074;-78
2021/12/23 10:43:30;;;;;;;47.92;22.48;;;2.70;99.90;;;;;;5100842;28;20013;-76
2021/12/23 10:46:00;;;;;;;48.53;20.88;;;2.70;99.90;;;;;;5106814;28;20313;-77
2021/12/23 10:48:30;;;;;;;49.85;22.08;;;2.80;99.90;;;;;;5096502;28;20655;-77
2021/12/23 10:51:18;;;;;;;53.25;21.58;;;2.80;99.90;;;;;;5088072;28;20032;-77
2021/12/23 10:59:20;;;;;;;52.60;21.85;;;3.00;99.90;;;;;;5093386;28;20544;-77
2021/12/23 11:02:21;;;;;;;50.92;21.88;;;3.10;99.90;;;;;;5092418;28;20051;-75
2021/12/23 11:05:09;;;;;;;51.47;20.33;;;3.20;99.90;;;;;;5078949;28;20036;-76
2021/12/23 11:08:01;;;;;;;54.65;22.90;;;3.20;99.90;;;;;;5083183;28;20032;-75
2021/12/23 11:11:14;;;;;;;52.42;21.42;;;3.20;99.90;;;;;;5081097;28;20066;-78
2021/12/23 11:41:37;;;;;;;;;;;3.80;99.90;;;;;;5096169;28;20024;-76
2021/12/23 11:44:01;;;;;;;52.20;22.05;;;3.90;99.90;;;;;;5105899;28;19908;-76
2021/12/23 11:46:39;;;;;;;58.17;23.45;;;3.90;99.90;;;;;;5098372;28;20028;-76
2021/12/23 11:49:10;;;;;;;49.58;22.23;;;4.00;99.90;;;;;;5108457;28;20054;-75
2021/12/23 11:54:07;;;;;;;54.05;23.42;;;4.10;99.90;;;;;;5096747;28;20040;-77
2021/12/23 11:56:38;;;;;;;51.08;21.38;;;4.10;99.90;;;;;;5097984;28;20036;-76
2021/12/23 11:59:05;;;;;;;46.00;21.00;;;4.10;99.90;;;;;;5100750;28;20034;-76
2021/12/23 12:01:46;;;;;;;48.65;21.65;;;4.20;99.90;;;;;;5100767;28;20055;-76
2021/12/23 12:04:13;;;;;;;;;;;4.30;99.90;;;;;;5105951;28;20501;-78
2021/12/23 12:06:50;;;;;;;48.38;20.83;;;4.30;99.90;;;;;;5104885;28;19927;-77
2021/12/23 12:09:23;;;;;;;52.67;21.98;;;4.40;99.90;;;;;;5108504;28;20424;-77
2021/12/23 12:12:08;;;;;;;42.40;19.10;;;4.50;99.90;;;;;;5101862;28;20029;-77
2021/12/23 12:14:41;;;;;;;44.13;20.08;;;4.40;99.90;;;;;;5083221;28;20104;-77
2021/12/23 12:17:25;;;;;;;45.78;19.98;;;4.50;99.90;;;;;;5077893;28;20431;-77
2021/12/23 12:19:52;;;;;;;45.78;20.15;;;4.50;99.90;;;;;;5092445;28;20016;-76
2021/12/23 12:22:45;;;;;;;50.38;20.52;;;4.50;99.90;;;;;;5096863;28;20031;-77
2021/12/23 12:25:26;;;;;;;39.85;19.60;;;4.50;99.90;;;;;;5108985;28;20054;-77
2021/12/23 12:28:18;;;;;;;45.53;19.90;;;4.50;99.90;;;;;;5101970;28;20055;-77
2021/12/23 12:31:31;;;;;;;49.30;20.77;;;4.50;99.90;;;;;;5111294;28;20027;-75
2021/12/23 12:34:00;;;;;;;40.30;19.73;;;4.50;99.90;;;;;;5085626;28;20503;-77
2021/12/23 12:36:26;;;;;;;45.78;20.45;;;4.60;99.90;;;;;;5093564;28;20042;-77
2021/12/23 12:39:10;;;;;;;42.47;19.90;;;4.60;99.90;;;;;;5101243;28;20481;-77
2021/12/23 12:41:37;;;;;;;37.92;19.42;;;4.60;99.90;;;;;;5098780;28;20101;-78
2021/12/23 12:44:09;;;;;;;38.78;18.65;;;4.60;99.90;;;;;;5099502;28;20020;-76
2021/12/23 12:46:48;;;;;;;42.70;19.75;;;4.60;99.90;;;;;;5103387;28;20502;-78
2021/12/23 12:49:25;;;;;;;45.03;20.80;;;4.60;99.90;;;;;;5099586;28;20136;-78
2021/12/23 12:51:54;;;;;;;44.70;19.77;;;4.70;99.90;;;;;;5104272;28;20099;-78
2021/12/23 12:54:31;;;;;;;41.88;19.83;;;4.70;99.90;;;;;;5100660;28;20023;-78
2021/12/23 12:57:05;;;;;;;40.80;18.42;;;4.80;99.90;;;;;;5101585;28;20032;-79
2021/12/23 12:59:36;;;;;;;43.38;19.50;;;4.80;99.90;;;;;;5100441;28;20024;-78
2021/12/23 13:02:02;;;;;;;41.60;20.95;;;4.80;99.90;;;;;;5096622;28;20031;-79
2021/12/23 13:04:40;;;;;;;40.22;18.40;;;4.80;99.90;;;;;;5106902;28;20027;-77
2021/12/23 13:07:24;;;;;;;48.25;20.20;;;4.80;99.90;;;;;;5099663;28;20466;-78
2021/12/23 13:10:32;;;;;;;41.35;19.92;;;4.80;99.90;;;;;;5096680;28;20484;-80
2021/12/23 13:13:04;;;;;;;43.78;20.20;;;4.80;99.90;;;;;;5101014;28;20115;-79
2021/12/23 13:15:35;;;;;;;47.38;21.58;;;4.80;99.90;;;;;;5108181;28;20029;-79
2021/12/23 13:18:18;;;;;;;38.75;18.20;;;4.80;99.90;;;;;;5092919;28;20035;-77
2021/12/23 13:20:45;;;;;;;47.58;20.13;;;4.80;99.90;;;;;;5090826;28;20024;-77
2021/12/23 13:23:29;;;;;;;45.35;20.48;;;4.80;99.90;;;;;;5082943;28;20402;-77
2021/12/23 13:25:58;;;;;;;44.58;21.33;;;4.80;99.90;;;;;;5087939;28;20486;-78
2021/12/23 13:28:58;;;;;;;43.88;19.67;;;4.80;99.90;;;;;;5084996;28;20031;-78
2021/12/23 13:31:30;;;;;;;42.30;20.40;;;4.80;99.90;;;;;;5066140;28;20031;-77
2021/12/23 13:34:03;;;;;;;47.10;19.85;;;4.80;99.90;;;;;;5100594;28;20273;-78
2021/12/23 13:36:42;;;;;;;50.40;21.08;;;4.80;99.90;;;;;;5102788;28;20042;-77
2021/12/23 13:39:17;;;;;;;44.45;19.25;;;4.80;99.90;;;;;;5101049;28;20147;-78
2021/12/23 13:41:46;;;;;;;41.45;18.08;;;4.80;99.90;;;;;;5100204;28;20024;-77
2021/12/23 13:44:14;;;;;;;47.42;21.65;;;4.80;99.90;;;;;;5100168;28;20028;-77
2021/12/23 13:47:00;;;;;;;47.75;20.35;;;4.80;99.90;;;;;;5092052;28;20024;-78
2021/12/23 13:49:47;;;;;;;47.83;19.50;;;4.80;99.90;;;;;;5089804;28;20066;-77
2021/12/23 13:52:32;;;;;;;31.83;14.63;;;4.80;99.90;;;;;;5085538;28;20108;-78
2021/12/23 13:55:06;;;;;;;47.17;18.40;;;4.90;99.90;;;;;;5080956;28;20474;-76
2021/12/23 13:57:36;;;;;;;44.92;20.45;;;4.90;99.90;;;;;;5083720;28;20032;-76
2021/12/23 14:00:34;;;;;;;41.92;20.85;;;4.90;99.90;;;;;;5083799;28;20027;-78